createdAt,value
2019-03-06T00:01:14.289Z,81.78
2019-03-06T00:03:43.912Z,81.82
2019-03-06T00:06:16.748Z,81.78
2019-03-06T00:08:44.163Z,81.78
2019-03-06T00:11:13.870Z,81.75
2019-03-06T00:13:43.123Z,81.62
2019-03-06T00:16:12.410Z,81.67
2019-03-06T00:18:43.112Z,81.72
2019-03-06T00:21:12.435Z,81.73
2019-03-06T00:23:42.001Z,81.76
2019-03-06T00:26:11.626Z,81.79
2019-03-06T00:28:40.862Z,81.74
2019-03-06T00:31:10.153Z,81.64
2019-03-06T00:33:39.738Z,81.63
2019-03-06T00:36:14.960Z,81.55
2019-03-06T00:38:44.215Z,81.52
2019-03-06T00:41:25.250Z,81.43
2019-03-06T00:43:54.545Z,81.25
2019-03-06T00:46:24.276Z,81.01
2019-03-06T00:48:53.557Z,81.17
2019-03-06T00:51:22.782Z,81.32
2019-03-06T00:53:52.699Z,81.39
2019-03-06T00:56:22.003Z,81.38
2019-03-06T00:58:51.275Z,81.44
2019-03-06T01:01:20.914Z,81.27
2019-03-06T01:03:50.266Z,81.22
2019-03-06T01:06:19.680Z,81.17
2019-03-06T01:08:49.554Z,81.08
2019-03-06T01:11:18.814Z,81.04
2019-03-06T01:13:48.065Z,80.94
2019-03-06T01:16:17.622Z,81.12
2019-03-06T01:18:46.953Z,80.94
2019-03-06T01:21:16.168Z,80.78
2019-03-06T01:23:47.035Z,81.05
2019-03-06T01:26:16.335Z,81.00
2019-03-06T01:28:45.567Z,80.74
2019-03-06T01:31:17.370Z,80.31
2019-03-06T01:33:51.691Z,80.16
2019-03-06T01:36:38.786Z,80.56
2019-03-06T01:39:33.366Z,80.87
2019-03-06T01:42:09.822Z,80.90
2019-03-06T01:44:45.724Z,80.89
2019-03-06T01:47:15.452Z,80.84
2019-03-06T01:49:44.994Z,80.70
2019-03-06T01:52:14.326Z,80.37
2019-03-06T01:54:44.037Z,80.29
2019-03-06T01:57:13.247Z,80.13
2019-03-06T01:59:42.564Z,80.05
2019-03-06T02:02:12.243Z,79.59
2019-03-06T02:04:41.499Z,79.62
2019-03-06T02:07:10.924Z,79.25
2019-03-06T02:09:41.155Z,79.22
2019-03-06T02:12:10.618Z,79.24
2019-03-06T02:14:39.929Z,78.99
2019-03-06T02:17:09.661Z,78.96
2019-03-06T02:19:38.985Z,79.00
2019-03-06T02:22:11.225Z,78.99
2019-03-06T02:24:40.922Z,78.97
2019-03-06T02:27:10.575Z,78.65
2019-03-06T02:29:39.956Z,78.94
2019-03-06T02:32:09.909Z,79.02
2019-03-06T02:34:39.305Z,79.03
2019-03-06T02:37:09.026Z,78.97
2019-03-06T02:39:38.679Z,79.13
2019-03-06T02:42:08.141Z,79.06
2019-03-06T02:44:39.982Z,78.63
2019-03-06T02:47:08.847Z,78.88
2019-03-06T02:49:38.208Z,78.86
2019-03-06T02:52:07.539Z,78.69
2019-03-06T02:54:37.152Z,78.51
2019-03-06T02:57:06.753Z,79.01
2019-03-06T03:00:00.927Z,79.21
2019-03-06T03:02:48.964Z,79.18
2019-03-06T03:05:46.381Z,79.29
2019-03-06T03:08:15.772Z,79.33
2019-03-06T03:10:45.237Z,78.64
2019-03-06T03:13:14.973Z,79.14
2019-03-06T03:15:44.288Z,79.42
2019-03-06T03:18:13.595Z,79.46
2019-03-06T03:20:43.474Z,79.29
2019-03-06T03:23:13.278Z,78.96
2019-03-06T03:25:42.576Z,78.95
2019-03-06T03:28:12.304Z,79.20
2019-03-06T03:30:41.540Z,79.42
2019-03-06T03:33:10.873Z,79.09
2019-03-06T03:35:40.840Z,79.08
2019-03-06T03:38:11.512Z,79.38
2019-03-06T03:40:40.714Z,79.72
2019-03-06T03:43:11.392Z,79.50
2019-03-06T03:45:40.634Z,79.25
2019-03-06T03:48:09.961Z,79.65
2019-03-06T03:50:39.678Z,79.93
2019-03-06T03:53:09.020Z,80.05
2019-03-06T03:55:38.445Z,80.09
2019-03-06T03:58:08.006Z,80.02
2019-03-06T04:00:37.752Z,79.81
2019-03-06T04:03:07.007Z,79.33
2019-03-06T04:05:36.741Z,79.19
2019-03-06T04:08:06.002Z,79.91
2019-03-06T04:10:35.248Z,80.13
2019-03-06T04:13:06.407Z,80.18
2019-03-06T04:15:35.688Z,80.32
2019-03-06T04:18:07.953Z,80.48
2019-03-06T04:20:37.707Z,80.51
2019-03-06T04:23:06.954Z,80.43
2019-03-06T04:25:36.373Z,80.34
2019-03-06T04:28:09.975Z,80.29
2019-03-06T04:30:39.200Z,80.06
2019-03-06T04:33:08.478Z,80.04
2019-03-06T04:35:38.283Z,80.08
2019-03-06T04:38:07.567Z,80.10
2019-03-06T04:40:36.863Z,80.26
2019-03-06T04:43:06.669Z,80.27
2019-03-06T04:45:35.935Z,80.15
2019-03-06T04:48:07.959Z,80.13
2019-03-06T04:50:37.669Z,80.13
2019-03-06T04:53:06.959Z,80.05
2019-03-06T04:55:36.256Z,79.96
2019-03-06T04:58:07.999Z,79.78
2019-03-06T05:00:37.410Z,79.99
2019-03-06T05:03:06.652Z,80.03
2019-03-06T05:05:36.280Z,80.13
2019-03-06T05:08:08.682Z,80.10
2019-03-06T05:10:37.950Z,80.29
2019-03-06T05:13:07.694Z,80.65
2019-03-06T05:15:39.059Z,80.41
2019-03-06T05:18:32.792Z,80.52
2019-03-06T05:21:03.797Z,80.72
2019-03-06T05:23:33.515Z,81.06
2019-03-06T05:26:04.507Z,81.05
2019-03-06T05:28:34.364Z,80.96
2019-03-06T05:31:05.351Z,81.01
2019-03-06T05:33:37.011Z,81.03
2019-03-06T05:36:36.446Z,81.08
2019-03-06T05:39:12.482Z,81.15
2019-03-06T05:41:44.866Z,81.23
2019-03-06T05:44:14.062Z,80.95
2019-03-06T05:46:43.991Z,80.97
2019-03-06T05:49:13.425Z,80.83
2019-03-06T05:51:42.898Z,80.79
2019-03-06T05:54:13.157Z,80.74
2019-03-06T05:56:42.380Z,80.58
2019-03-06T05:59:11.627Z,80.44
2019-03-06T06:01:41.397Z,79.92
2019-03-06T06:04:10.653Z,79.65
2019-03-06T06:09:14.411Z,79.27
2019-03-06T06:11:43.876Z,78.83
2019-03-06T06:14:13.149Z,78.65
2019-03-06T06:16:42.733Z,78.85
2019-03-06T06:19:12.039Z,79.16
2019-03-06T06:22:03.963Z,79.08
2019-03-06T06:24:33.578Z,78.92
2019-03-06T06:27:03.004Z,78.74
2019-03-06T06:29:32.351Z,78.16
2019-03-06T06:32:08.301Z,77.82
2019-03-06T06:34:37.606Z,77.54
2019-03-06T06:37:06.861Z,77.32
2019-03-06T06:39:37.641Z,77.00
2019-03-06T06:42:06.912Z,76.54
2019-03-06T06:44:36.176Z,75.75
2019-03-06T06:47:07.919Z,74.78
2019-03-06T06:49:37.246Z,74.37
2019-03-06T06:52:52.301Z,73.59
2019-03-06T06:55:53.529Z,73.19
2019-03-06T06:58:56.723Z,72.77
2019-03-06T07:02:19.880Z,71.48
2019-03-06T07:05:27.525Z,71.64
2019-03-06T07:08:30.639Z,71.17
2019-03-06T07:11:06.367Z,70.97
2019-03-06T07:13:51.885Z,70.18
2019-03-06T07:16:43.107Z,69.40
2019-03-06T07:19:16.163Z,68.48
2019-03-06T07:22:04.371Z,67.85
2019-03-06T07:24:52.618Z,67.72
2019-03-06T07:27:41.304Z,67.20
2019-03-06T07:30:29.084Z,66.90
2019-03-06T07:33:14.013Z,66.78
2019-03-06T07:36:14.793Z,65.71
2019-03-06T07:38:44.636Z,65.32
2019-03-06T07:41:35.479Z,64.75
2019-03-06T07:44:32.858Z,64.14
2019-03-06T07:47:30.289Z,63.50
2019-03-06T07:50:17.153Z,63.52
2019-03-06T07:53:36.711Z,63.35
2019-03-06T07:56:14.188Z,62.90
2019-03-06T07:58:57.006Z,62.85
2019-03-06T08:01:29.023Z,63.09
2019-03-06T08:04:05.271Z,62.82
2019-03-06T08:06:36.597Z,61.90
2019-03-06T08:09:14.698Z,61.74
2019-03-06T08:11:54.454Z,61.60
2019-03-06T08:14:41.551Z,61.07
2019-03-06T08:17:35.616Z,61.09
2019-03-06T08:20:42.455Z,60.89
2019-03-06T08:23:29.678Z,60.21
2019-03-06T08:26:02.939Z,60.17
2019-03-06T08:28:37.075Z,59.62
2019-03-06T08:31:21.947Z,58.84
2019-03-06T08:33:52.184Z,58.60
2019-03-06T08:36:21.881Z,58.32
2019-03-06T08:38:51.220Z,57.10
2019-03-06T08:41:20.740Z,57.08
2019-03-06T08:43:50.376Z,56.84
2019-03-06T08:46:38.654Z,55.86
2019-03-06T08:49:27.231Z,55.09
2019-03-06T08:52:05.790Z,54.87
2019-03-06T08:54:47.141Z,54.71
2019-03-06T08:57:42.073Z,54.85
2019-03-06T09:00:37.951Z,54.55
2019-03-06T09:03:36.503Z,53.68
2019-03-06T09:06:46.953Z,53.03
2019-03-06T09:09:35.006Z,53.15
2019-03-06T09:12:16.124Z,52.98
2019-03-06T09:15:13.594Z,52.54
2019-03-06T09:18:09.076Z,51.88
2019-03-06T09:20:53.356Z,51.18
2019-03-06T09:23:40.358Z,51.99
2019-03-06T09:26:34.737Z,52.60
2019-03-06T09:29:32.306Z,52.38
2019-03-06T09:32:29.349Z,52.13
2019-03-06T09:35:06.716Z,52.39
2019-03-06T09:37:45.277Z,52.49
2019-03-06T09:40:30.850Z,51.91
2019-03-06T09:43:19.107Z,51.91
2019-03-06T09:46:04.859Z,51.43
2019-03-06T09:48:42.984Z,50.89
2019-03-06T09:51:31.603Z,50.03
2019-03-06T09:54:18.626Z,50.02
2019-03-06T09:56:59.045Z,49.49
2019-03-06T09:59:33.357Z,49.52
2019-03-06T10:02:24.785Z,48.93
2019-03-06T10:05:11.860Z,48.01
2019-03-06T10:08:04.436Z,47.57
2019-03-06T10:10:57.504Z,47.20
2019-03-06T10:13:52.778Z,47.28
2019-03-06T10:16:53.006Z,46.58
2019-03-06T10:19:29.863Z,45.34
2019-03-06T10:21:59.363Z,43.98
2019-03-06T10:24:28.669Z,43.20
2019-03-06T10:26:58.308Z,42.43
2019-03-06T10:29:30.393Z,41.36
2019-03-06T10:31:59.646Z,41.40
2019-03-06T10:34:29.632Z,40.65
2019-03-06T10:36:59.838Z,39.67
2019-03-06T10:39:29.419Z,38.77
2019-03-06T10:41:59.222Z,38.39
2019-03-06T10:46:59.535Z,36.37
2019-03-06T10:49:29.486Z,35.86
2019-03-06T10:51:58.795Z,36.06
2019-03-06T10:54:28.129Z,36.37
2019-03-06T10:56:57.815Z,36.86
2019-03-06T10:59:27.122Z,36.70
2019-03-06T11:01:56.399Z,37.33
2019-03-06T11:04:33.050Z,37.58
2019-03-06T11:07:02.421Z,37.68
2019-03-06T11:09:31.847Z,37.83
2019-03-06T11:12:03.512Z,37.89
2019-03-06T11:14:35.384Z,38.26
2019-03-06T11:17:04.347Z,38.26
2019-03-06T11:19:34.393Z,38.07
2019-03-06T11:22:05.840Z,37.61
2019-03-06T11:24:35.251Z,36.30
2019-03-06T11:27:05.496Z,35.76
2019-03-06T11:29:34.830Z,35.51
2019-03-06T11:32:05.248Z,34.52
2019-03-06T11:34:34.996Z,34.06
2019-03-06T11:37:04.459Z,33.98
2019-03-06T11:39:34.622Z,33.64
2019-03-06T11:42:04.952Z,33.74
2019-03-06T11:44:34.509Z,34.11
2019-03-06T11:47:03.807Z,34.22
2019-03-06T11:49:33.447Z,34.52
2019-03-06T11:52:06.558Z,34.63
2019-03-06T11:54:39.042Z,35.22
2019-03-06T11:57:08.911Z,35.52
2019-03-06T11:59:38.325Z,35.01
2019-03-06T12:02:07.842Z,33.90
2019-03-06T12:04:38.038Z,32.71
2019-03-06T12:07:08.805Z,32.21
2019-03-06T12:09:38.085Z,32.37
2019-03-06T12:12:07.858Z,32.15
2019-03-06T12:14:37.162Z,32.17
2019-03-06T12:17:10.047Z,32.26
2019-03-06T12:19:39.986Z,32.54
2019-03-06T12:22:09.234Z,32.82
2019-03-06T12:24:38.644Z,32.89
2019-03-06T12:27:08.516Z,32.36
2019-03-06T12:29:41.056Z,31.24
2019-03-06T12:32:10.596Z,30.88
2019-03-06T12:34:40.392Z,30.96
2019-03-06T12:37:09.694Z,30.98
2019-03-06T12:39:39.163Z,30.35
2019-03-06T12:42:14.387Z,29.00
2019-03-06T12:44:40.634Z,28.69
2019-03-06T12:47:11.001Z,28.91
2019-03-06T12:49:40.804Z,29.01
2019-03-06T12:52:10.068Z,28.53
2019-03-06T12:54:39.404Z,28.41
2019-03-06T12:57:08.871Z,28.21
2019-03-06T12:59:41.095Z,28.08
2019-03-06T13:02:11.456Z,27.15
2019-03-06T13:04:42.149Z,26.50
2019-03-06T13:07:11.466Z,26.03
2019-03-06T13:09:40.772Z,25.36
2019-03-06T13:12:10.405Z,25.27
2019-03-06T13:14:39.768Z,24.58
2019-03-06T13:17:11.510Z,24.51
2019-03-06T13:19:40.867Z,23.82
2019-03-06T13:22:11.421Z,23.43
2019-03-06T13:24:41.681Z,24.00
2019-03-06T13:27:11.072Z,24.97
2019-03-06T13:29:40.364Z,26.08
2019-03-06T13:32:11.910Z,26.48
2019-03-06T13:34:51.517Z,26.38
2019-03-06T13:37:19.397Z,26.26
2019-03-06T13:39:48.749Z,25.69
2019-03-06T13:42:18.549Z,26.42
2019-03-06T13:44:49.265Z,26.47
2019-03-06T13:47:19.381Z,26.22
2019-03-06T13:49:49.872Z,25.92
2019-03-06T13:52:19.677Z,25.60
2019-03-06T13:54:49.606Z,25.58
2019-03-06T13:57:22.659Z,25.81
2019-03-06T13:59:52.523Z,26.04
2019-03-06T14:02:23.031Z,26.45
2019-03-06T14:04:53.248Z,26.79
2019-03-06T14:07:23.289Z,27.09
2019-03-06T14:09:54.018Z,26.72
2019-03-06T14:12:23.607Z,26.55
2019-03-06T14:14:53.801Z,26.87
2019-03-06T14:17:23.834Z,27.95
2019-03-06T14:19:54.085Z,28.71
2019-03-06T14:22:23.662Z,29.11
2019-03-06T14:24:56.304Z,31.62
2019-03-06T14:27:25.803Z,34.03
2019-03-06T14:29:55.224Z,35.70
2019-03-06T14:32:25.774Z,35.93
2019-03-06T14:34:55.699Z,35.45
2019-03-06T14:37:25.123Z,35.55
2019-03-06T14:39:55.099Z,36.47
2019-03-06T14:42:24.678Z,36.01
2019-03-06T14:44:54.188Z,35.38
2019-03-06T14:47:25.021Z,35.67
2019-03-06T14:49:54.542Z,35.31
2019-03-06T14:52:24.197Z,35.94
2019-03-06T14:54:53.975Z,36.03
2019-03-06T14:57:23.753Z,36.29
2019-03-06T14:59:53.351Z,36.30
2019-03-06T15:02:23.161Z,36.53
2019-03-06T15:04:52.628Z,36.64
2019-03-06T15:07:21.950Z,37.02
2019-03-06T15:09:51.776Z,37.24
2019-03-06T15:12:21.426Z,37.13
2019-03-06T15:14:51.078Z,37.24
2019-03-06T15:17:20.909Z,37.93
2019-03-06T15:19:50.529Z,38.11
2019-03-06T15:22:20.150Z,38.30
2019-03-06T15:24:50.224Z,38.80
2019-03-06T15:27:20.091Z,39.28
2019-03-06T15:29:49.494Z,39.59
2019-03-06T15:32:19.426Z,39.89
2019-03-06T15:34:49.428Z,40.43
2019-03-06T15:37:19.095Z,40.81
2019-03-06T15:39:49.219Z,41.18
2019-03-06T15:42:19.094Z,41.28
2019-03-06T15:44:48.888Z,41.33
2019-03-06T15:47:19.096Z,41.79
2019-03-06T15:49:49.915Z,41.90
2019-03-06T15:52:19.709Z,42.07
2019-03-06T15:54:50.046Z,42.38
2019-03-06T15:57:19.969Z,42.73
2019-03-06T15:59:49.805Z,42.94
2019-03-06T16:02:20.008Z,43.04
2019-03-06T16:04:49.863Z,43.19
2019-03-06T16:07:19.988Z,43.40
2019-03-06T16:09:55.254Z,43.46
2019-03-06T16:12:25.076Z,43.52
2019-03-06T16:14:55.820Z,44.00
2019-03-06T16:17:26.179Z,44.26
2019-03-06T16:19:56.594Z,44.54
2019-03-06T16:22:26.354Z,44.91
2019-03-06T16:25:09.386Z,44.82
2019-03-06T16:27:40.121Z,44.82
2019-03-06T16:30:11.806Z,45.28
2019-03-06T16:32:41.645Z,45.47
2019-03-06T16:35:11.769Z,45.74
2019-03-06T16:37:44.103Z,46.05
2019-03-06T16:40:18.619Z,45.94
2019-03-06T16:42:49.186Z,46.22
2019-03-06T16:45:20.172Z,46.55
2019-03-06T16:47:51.420Z,46.73
2019-03-06T16:50:21.763Z,46.93
2019-03-06T16:52:54.695Z,47.23
2019-03-06T16:55:25.040Z,47.41
2019-03-06T16:57:58.074Z,47.69
2019-03-06T17:00:30.580Z,47.83
2019-03-06T17:03:01.338Z,48.14
2019-03-06T17:05:33.170Z,48.12
2019-03-06T17:08:04.418Z,47.99
2019-03-06T17:10:34.695Z,47.86
2019-03-06T17:13:05.039Z,47.90
2019-03-06T17:15:35.456Z,47.86
2019-03-06T17:18:08.482Z,47.64
2019-03-06T17:20:39.498Z,48.08
2019-03-06T17:23:09.362Z,48.01
2019-03-06T17:25:39.267Z,48.44
2019-03-06T17:28:09.654Z,47.94
2019-03-06T17:30:39.381Z,47.73
2019-03-06T17:33:10.004Z,47.54
2019-03-06T17:35:40.696Z,47.46
2019-03-06T17:38:11.403Z,47.08
2019-03-06T17:40:41.745Z,46.81
2019-03-06T17:43:12.553Z,46.82
2019-03-06T17:45:44.120Z,45.32
2019-03-06T17:48:14.137Z,45.60
2019-03-06T17:50:44.730Z,45.87
2019-03-06T17:53:14.974Z,45.68
2019-03-06T17:55:45.731Z,45.72
2019-03-06T17:58:16.489Z,45.72
2019-03-06T18:00:51.984Z,45.76
2019-03-06T18:03:34.688Z,45.20
2019-03-06T18:08:44.356Z,44.71
2019-03-06T18:11:23.123Z,44.36
2019-03-06T18:13:53.594Z,44.39
2019-03-06T18:16:23.663Z,44.52
2019-03-06T18:18:53.746Z,44.65
2019-03-06T18:21:24.947Z,44.64
2019-03-06T18:23:54.679Z,44.62
2019-03-06T18:26:24.327Z,44.52
2019-03-06T18:28:54.713Z,44.39
2019-03-06T18:31:24.887Z,44.58
2019-03-06T18:33:56.269Z,44.74
2019-03-06T18:36:26.823Z,44.93
2019-03-06T18:38:58.019Z,44.97
2019-03-06T18:41:28.116Z,44.81
2019-03-06T18:43:58.513Z,44.84
2019-03-06T18:46:28.666Z,44.90
2019-03-06T18:48:58.398Z,44.86
2019-03-06T18:51:30.018Z,45.04
2019-03-06T18:53:59.881Z,45.16
2019-03-06T18:56:30.562Z,45.18
2019-03-06T18:59:00.901Z,45.16
2019-03-06T19:01:30.693Z,45.50
2019-03-06T19:04:02.746Z,45.75
2019-03-06T19:06:33.494Z,45.98
2019-03-06T19:09:04.190Z,45.69
2019-03-06T19:11:34.070Z,45.74
2019-03-06T19:14:06.620Z,45.82
2019-03-06T19:16:36.337Z,45.77
2019-03-06T19:19:06.320Z,45.92
2019-03-06T19:21:36.415Z,46.01
2019-03-06T19:24:06.821Z,46.06
2019-03-06T19:26:36.723Z,46.30
2019-03-06T19:29:06.914Z,46.37
2019-03-06T19:31:38.494Z,46.22
2019-03-06T19:34:08.366Z,46.18
2019-03-06T19:36:44.450Z,46.49
2019-03-06T19:39:14.675Z,46.44
2019-03-06T19:41:44.509Z,46.58
2019-03-06T19:44:16.293Z,46.57
2019-03-06T19:46:46.017Z,46.52
2019-03-06T19:49:15.925Z,46.47
2019-03-06T19:51:51.481Z,46.20
2019-03-06T19:54:19.065Z,46.65
2019-03-06T19:56:49.942Z,46.36
2019-03-06T19:59:20.779Z,46.18
2019-03-06T20:01:52.462Z,46.37
2019-03-06T20:04:22.417Z,46.98
2019-03-06T20:06:54.885Z,46.99
2019-03-06T20:09:28.542Z,46.89
2019-03-06T20:12:03.561Z,46.36
2019-03-06T20:14:33.401Z,46.02
2019-03-06T20:17:20.222Z,45.51
2019-03-06T20:19:53.238Z,45.90
2019-03-06T20:22:23.559Z,45.57
2019-03-06T20:24:55.181Z,45.57
2019-03-06T20:27:25.279Z,45.44
2019-03-06T20:29:55.574Z,45.46
2019-03-06T20:32:25.604Z,45.38
2019-03-06T20:34:55.650Z,45.11
2019-03-06T20:37:25.572Z,44.67
2019-03-06T20:39:55.821Z,44.46
2019-03-06T20:42:25.739Z,44.02
2019-03-06T20:44:55.942Z,43.63
2019-03-06T20:47:29.554Z,43.45
2019-03-06T20:49:59.413Z,43.18
2019-03-06T20:52:32.453Z,43.53
2019-03-06T20:55:02.683Z,43.88
2019-03-06T20:57:32.474Z,43.36
2019-03-06T21:00:03.114Z,43.14
2019-03-06T21:02:36.294Z,42.75
2019-03-06T21:05:06.279Z,42.23
2019-03-06T21:07:44.839Z,42.00
2019-03-06T21:10:09.242Z,41.67
2019-03-06T21:12:39.165Z,41.36
2019-03-06T21:15:10.123Z,41.25
2019-03-06T21:17:40.339Z,41.32
2019-03-06T21:20:12.594Z,41.56
2019-03-06T21:22:42.542Z,41.50
2019-03-06T21:25:15.721Z,41.46
2019-03-06T21:27:45.754Z,41.36
2019-03-06T21:30:19.012Z,41.36
2019-03-06T21:33:02.236Z,41.55
2019-03-06T21:35:32.360Z,41.69
2019-03-06T21:38:03.199Z,41.44
2019-03-06T21:40:33.365Z,41.34
2019-03-06T21:43:03.219Z,41.52
2019-03-06T21:45:33.933Z,41.54
2019-03-06T21:48:05.695Z,41.60
2019-03-06T21:50:37.486Z,41.76
2019-03-06T21:53:07.002Z,41.96
2019-03-06T21:55:36.923Z,42.02
2019-03-06T21:58:07.349Z,42.27
2019-03-06T22:00:37.022Z,42.12
2019-03-06T22:03:06.754Z,42.37
2019-03-06T22:05:37.212Z,42.42
2019-03-06T22:08:07.210Z,42.55
2019-03-06T22:10:37.156Z,43.31
2019-03-06T22:13:06.587Z,43.90
2019-03-06T22:15:35.828Z,43.79
2019-03-06T22:18:06.789Z,43.78
2019-03-06T22:20:36.300Z,43.76
2019-03-06T22:23:05.716Z,44.46
2019-03-06T22:25:35.479Z,43.99
2019-03-06T22:28:05.868Z,44.19
2019-03-06T22:30:35.122Z,44.44
2019-03-06T22:33:04.902Z,44.96
2019-03-06T22:35:34.159Z,44.90
2019-03-06T22:38:06.486Z,45.00
2019-03-06T22:40:36.127Z,45.68
2019-03-06T22:43:05.577Z,45.50
2019-03-06T22:45:35.007Z,45.46
2019-03-06T22:48:08.554Z,45.50
2019-03-06T22:50:37.947Z,45.21
2019-03-06T22:53:07.421Z,45.33
2019-03-06T22:55:36.939Z,45.40
2019-03-06T22:58:09.242Z,45.18
2019-03-06T23:00:48.822Z,45.55
2019-03-06T23:03:18.763Z,45.20
2019-03-06T23:05:51.084Z,45.72
2019-03-06T23:08:22.164Z,45.16
2019-03-06T23:10:52.186Z,44.46
2019-03-06T23:13:22.494Z,44.46
2019-03-06T23:15:52.421Z,44.54
2019-03-06T23:18:22.299Z,44.20
2019-03-06T23:20:52.125Z,43.56
2019-03-06T23:23:22.609Z,43.38
2019-03-06T23:25:52.401Z,42.92
2019-03-06T23:28:21.965Z,42.78
2019-03-06T23:30:52.142Z,42.46
2019-03-06T23:33:22.190Z,42.25
2019-03-06T23:35:51.654Z,42.07
2019-03-06T23:38:21.739Z,41.72
2019-03-06T23:40:51.618Z,41.78
2019-03-06T23:43:21.453Z,41.92
2019-03-06T23:45:51.524Z,42.01
2019-03-06T23:48:27.702Z,41.84
2019-03-06T23:50:57.364Z,42.11
2019-03-06T23:53:41.528Z,42.38
2019-03-06T23:56:11.433Z,42.63
2019-03-06T23:58:41.769Z,42.63
